sensor_id;sensor_type;location;lat;lon;timestamp;pressure;altitude;pressure_sealevel;temperature;humidity
10921;BME280;5513;50.580;8.818;2023-03-21T00:02:01;99271.59;;;9.17;100.00
10921;BME280;5513;50.580;8.818;2023-03-21T00:04:30;99280.56;;;8.99;100.00
10921;BME280;5513;50.580;8.818;2023-03-21T00:07:19;99268.28;;;8.98;100.00
10921;BME280;5513;50.580;8.818;2023-03-21T00:09:47;99272.94;;;8.93;100.00
10921;BME280;5513;50.580;8.818;2023-03-21T00:12:15;99264.59;;;9.01;100.00
10921;BME280;5513;50.580;8.818;2023-03-21T00:14:46;99260.50;;;8.95;100.00
10921;BME280;5513;50.580;8.818;2023-03-21T00:17:15;99262.91;;;9.00;100.00
10921;BME280;5513;50.580;8.818;2023-03-21T00:19:43;99269.38;;;9.10;100.00
10921;BME280;5513;50.580;8.818;2023-03-21T00:22:12;99265.78;;;9.11;100.00
10921;BME280;5513;50.580;8.818;2023-03-21T00:24:42;99259.41;;;8.99;100.00
10921;BME280;5513;50.580;8.818;2023-03-21T00:27:11;99259.56;;;9.12;100.00
10921;BME280;5513;50.580;8.818;2023-03-21T00:29:59;99261.53;;;9.08;100.00
10921;BME280;5513;50.580;8.818;2023-03-21T00:32:28;99253.00;;;9.03;100.00
10921;BME280;5513;50.580;8.818;2023-03-21T00:34:57;99255.22;;;8.95;100.00
10921;BME280;5513;50.580;8.818;2023-03-21T00:37:45;99246.38;;;8.80;100.00
10921;BME280;5513;50.580;8.818;2023-03-21T00:40:15;99253.28;;;8.83;100.00
10921;BME280;5513;50.580;8.818;2023-03-21T00:42:54;99248.94;;;8.82;100.00
10921;BME280;5513;50.580;8.818;2023-03-21T00:45:24;99242.72;;;8.83;100.00
10921;BME280;5513;50.580;8.818;2023-03-21T00:47:52;99246.00;;;8.86;100.00
10921;BME280;5513;50.580;8.818;2023-03-21T00:50:20;99242.19;;;8.92;100.00
10921;BME280;5513;50.580;8.818;2023-03-21T00:52:49;99243.13;;;8.91;100.00
10921;BME280;5513;50.580;8.818;2023-03-21T00:55:19;99228.22;;;8.90;100.00
10921;BME280;5513;50.580;8.818;2023-03-21T00:57:47;99239.88;;;8.86;100.00
10921;BME280;5513;50.580;8.818;2023-03-21T01:00:27;99229.41;;;8.84;100.00
10921;BME280;5513;50.580;8.818;2023-03-21T01:02:56;99227.38;;;8.89;100.00
10921;BME280;5513;50.580;8.818;2023-03-21T01:05:49;99232.66;;;8.89;100.00
10921;BME280;5513;50.580;8.818;2023-03-21T01:08:33;99230.97;;;8.88;100.00
10921;BME280;5513;50.580;8.818;2023-03-21T01:11:21;99225.91;;;8.84;100.00
10921;BME280;5513;50.580;8.818;2023-03-21T01:13:50;99229.84;;;8.77;100.00
10921;BME280;5513;50.580;8.818;2023-03-21T01:16:33;99227.19;;;8.93;100.00
10921;BME280;5513;50.580;8.818;2023-03-21T01:19:03;99229.75;;;8.94;100.00
10921;BME280;5513;50.580;8.818;2023-03-21T01:21:38;99227.47;;;8.88;100.00
10921;BME280;5513;50.580;8.818;2023-03-21T01:24:07;99228.47;;;8.85;100.00
10921;BME280;5513;50.580;8.818;2023-03-21T01:26:37;99224.38;;;8.96;100.00
10921;BME280;5513;50.580;8.818;2023-03-21T01:29:05;99230.44;;;8.82;100.00
10921;BME280;5513;50.580;8.818;2023-03-21T01:31:34;99228.13;;;8.76;100.00
10921;BME280;5513;50.580;8.818;2023-03-21T01:34:02;99227.72;;;8.83;100.00
10921;BME280;5513;50.580;8.818;2023-03-21T01:36:30;99217.31;;;8.80;100.00
10921;BME280;5513;50.580;8.818;2023-03-21T01:38:59;99225.16;;;8.82;100.00
10921;BME280;5513;50.580;8.818;2023-03-21T01:41:29;99213.84;;;8.80;100.00
10921;BME280;5513;50.580;8.818;2023-03-21T01:44:13;99221.91;;;8.77;100.00
10921;BME280;5513;50.580;8.818;2023-03-21T01:46:43;99219.78;;;8.83;100.00
10921;BME280;5513;50.580;8.818;2023-03-21T01:49:37;99223.47;;;8.81;100.00
10921;BME280;5513;50.580;8.818;2023-03-21T01:52:08;99216.63;;;8.77;100.00
10921;BME280;5513;50.580;8.818;2023-03-21T01:54:54;99205.91;;;8.80;100.00
10921;BME280;5513;50.580;8.818;2023-03-21T01:57:27;99213.03;;;8.78;100.00
10921;BME280;5513;50.580;8.818;2023-03-21T02:00:15;99202.56;;;8.76;100.00
10921;BME280;5513;50.580;8.818;2023-03-21T02:02:45;99200.34;;;8.84;100.00
10921;BME280;5513;50.580;8.818;2023-03-21T02:05:31;99199.84;;;8.78;100.00
10921;BME280;5513;50.580;8.818;2023-03-21T02:08:01;99200.28;;;8.70;100.00
10921;BME280;5513;50.580;8.818;2023-03-21T02:10:31;99195.34;;;8.64;100.00
10921;BME280;5513;50.580;8.818;2023-03-21T02:13:02;99194.16;;;8.70;100.00
10921;BME280;5513;50.580;8.818;2023-03-21T02:15:39;99198.16;;;8.45;100.00
10921;BME280;5513;50.580;8.818;2023-03-21T02:18:12;99188.44;;;8.46;100.00
10921;BME280;5513;50.580;8.818;2023-03-21T02:26:58;99180.16;;;8.68;100.00
10921;BME280;5513;50.580;8.818;2023-03-21T02:29:53;99180.16;;;8.68;100.00
10921;BME280;5513;50.580;8.818;2023-03-21T02:32:43;99179.25;;;8.69;100.00
10921;BME280;5513;50.580;8.818;2023-03-21T02:35:27;99172.25;;;8.68;100.00
10921;BME280;5513;50.580;8.818;2023-03-21T02:38:10;99184.34;;;8.72;100.00
10921;BME280;5513;50.580;8.818;2023-03-21T02:40:42;99180.34;;;8.65;100.00
10921;BME280;5513;50.580;8.818;2023-03-21T02:43:18;99178.38;;;8.68;100.00
10921;BME280;5513;50.580;8.818;2023-03-21T02:45:53;99176.09;;;8.62;100.00
10921;BME280;5513;50.580;8.818;2023-03-21T02:48:29;99164.22;;;8.85;100.00
10921;BME280;5513;50.580;8.818;2023-03-21T02:51:17;99169.09;;;8.77;100.00
10921;BME280;5513;50.580;8.818;2023-03-21T02:53:51;99174.13;;;8.81;100.00
10921;BME280;5513;50.580;8.818;2023-03-21T02:56:41;99165.09;;;8.85;100.00
10921;BME280;5513;50.580;8.818;2023-03-21T02:59:11;99175.41;;;8.74;100.00
10921;BME280;5513;50.580;8.818;2023-03-21T03:01:42;99173.47;;;8.62;100.00
10921;BME280;5513;50.580;8.818;2023-03-21T03:04:18;99166.81;;;8.71;100.00
10921;BME280;5513;50.580;8.818;2023-03-21T03:07:02;99165.78;;;8.73;100.00
10921;BME280;5513;50.580;8.818;2023-03-21T03:09:42;99163.75;;;8.63;100.00
10921;BME280;5513;50.580;8.818;2023-03-21T03:12:26;99160.16;;;8.64;100.00
10921;BME280;5513;50.580;8.818;2023-03-21T03:15:09;99148.91;;;8.76;100.00
10921;BME280;5513;50.580;8.818;2023-03-21T03:17:49;99155.31;;;8.56;100.00
10921;BME280;5513;50.580;8.818;2023-03-21T03:20:32;99161.09;;;8.47;100.00
10921;BME280;5513;50.580;8.818;2023-03-21T03:23:15;99153.59;;;8.55;100.00
10921;BME280;5513;50.580;8.818;2023-03-21T03:25:52;99157.94;;;8.56;100.00
10921;BME280;5513;50.580;8.818;2023-03-21T03:28:27;99154.97;;;8.62;100.00
10921;BME280;5513;50.580;8.818;2023-03-21T03:30:58;99150.78;;;8.58;100.00
10921;BME280;5513;50.580;8.818;2023-03-21T03:33:37;99152.84;;;8.53;100.00
10921;BME280;5513;50.580;8.818;2023-03-21T03:36:09;99154.22;;;8.60;100.00
10921;BME280;5513;50.580;8.818;2023-03-21T03:39:00;99163.50;;;8.51;100.00
10921;BME280;5513;50.580;8.818;2023-03-21T03:41:34;99151.06;;;8.38;100.00
10921;BME280;5513;50.580;8.818;2023-03-21T03:44:24;99153.78;;;8.36;100.00
10921;BME280;5513;50.580;8.818;2023-03-21T03:46:57;99155.59;;;8.51;100.00
10921;BME280;5513;50.580;8.818;2023-03-21T03:49:30;99161.19;;;8.45;100.00
10921;BME280;5513;50.580;8.818;2023-03-21T03:52:03;99152.75;;;8.39;100.00
10921;BME280;5513;50.580;8.818;2023-03-21T03:54:36;99152.69;;;8.40;100.00
10921;BME280;5513;50.580;8.818;2023-03-21T03:57:07;99157.59;;;8.46;100.00
10921;BME280;5513;50.580;8.818;2023-03-21T03:59:38;99154.38;;;8.57;100.00
10921;BME280;5513;50.580;8.818;2023-03-21T04:02:08;99150.97;;;8.55;100.00
10921;BME280;5513;50.580;8.818;2023-03-21T04:04:38;99148.34;;;8.55;100.00
10921;BME280;5513;50.580;8.818;2023-03-21T04:07:09;99147.22;;;8.43;100.00
10921;BME280;5513;50.580;8.818;2023-03-21T04:09:37;99147.22;;;8.43;100.00
10921;BME280;5513;50.580;8.818;2023-03-21T04:12:12;99139.31;;;8.43;100.00
10921;BME280;5513;50.580;8.818;2023-03-21T04:14:41;99148.50;;;8.36;100.00
10921;BME280;5513;50.580;8.818;2023-03-21T04:17:13;99137.34;;;8.31;100.00
10921;BME280;5513;50.580;8.818;2023-03-21T04:19:41;99133.66;;;8.18;100.00
10921;BME280;5513;50.580;8.818;2023-03-21T04:22:11;99135.19;;;8.22;100.00
10921;BME280;5513;50.580;8.818;2023-03-21T04:24:40;99136.63;;;8.12;100.00
10921;BME280;5513;50.580;8.818;2023-03-21T04:27:08;99136.81;;;8.24;100.00
10921;BME280;5513;50.580;8.818;2023-03-21T04:29:40;99131.75;;;8.20;100.00
10921;BME280;5513;50.580;8.818;2023-03-21T04:32:09;99126.66;;;8.01;100.00
10921;BME280;5513;50.580;8.818;2023-03-21T04:34:43;99135.56;;;7.98;100.00
10921;BME280;5513;50.580;8.818;2023-03-21T04:37:16;99120.59;;;7.83;100.00
10921;BME280;5513;50.580;8.818;2023-03-21T04:39:46;99131.94;;;8.01;100.00
10921;BME280;5513;50.580;8.818;2023-03-21T04:42:16;99134.22;;;7.91;100.00
10921;BME280;5513;50.580;8.818;2023-03-21T04:44:48;99132.75;;;7.86;100.00
10921;BME280;5513;50.580;8.818;2023-03-21T04:47:17;99131.50;;;8.09;100.00
10921;BME280;5513;50.580;8.818;2023-03-21T04:49:47;99123.75;;;8.06;100.00
10921;BME280;5513;50.580;8.818;2023-03-21T04:52:16;99122.81;;;8.07;100.00
10921;BME280;5513;50.580;8.818;2023-03-21T04:54:44;99114.69;;;8.11;100.00
10921;BME280;5513;50.580;8.818;2023-03-21T04:57:13;99117.28;;;7.95;100.00
10921;BME280;5513;50.580;8.818;2023-03-21T04:59:42;99117.38;;;8.10;100.00
10921;BME280;5513;50.580;8.818;2023-03-21T05:02:12;99117.13;;;8.14;100.00
10921;BME280;5513;50.580;8.818;2023-03-21T05:04:41;99116.69;;;8.06;100.00
10921;BME280;5513;50.580;8.818;2023-03-21T05:07:09;99099.50;;;7.99;100.00
10921;BME280;5513;50.580;8.818;2023-03-21T05:09:40;99109.56;;;7.92;100.00
10921;BME280;5513;50.580;8.818;2023-03-21T05:12:08;99105.53;;;7.85;100.00
10921;BME280;5513;50.580;8.818;2023-03-21T05:14:36;99108.84;;;7.89;100.00
10921;BME280;5513;50.580;8.818;2023-03-21T05:17:05;99115.50;;;7.96;100.00
10921;BME280;5513;50.580;8.818;2023-03-21T05:19:36;99107.09;;;8.05;100.00
10921;BME280;5513;50.580;8.818;2023-03-21T05:22:08;99108.69;;;7.92;100.00
10921;BME280;5513;50.580;8.818;2023-03-21T05:24:37;99112.19;;;7.92;100.00
10921;BME280;5513;50.580;8.818;2023-03-21T05:27:07;99108.53;;;7.95;100.00
10921;BME280;5513;50.580;8.818;2023-03-21T05:29:36;99110.97;;;7.98;100.00
10921;BME280;5513;50.580;8.818;2023-03-21T05:32:04;99113.13;;;7.91;100.00
10921;BME280;5513;50.580;8.818;2023-03-21T05:34:33;99116.66;;;7.90;100.00
10921;BME280;5513;50.580;8.818;2023-03-21T05:37:02;99119.94;;;7.95;100.00
10921;BME280;5513;50.580;8.818;2023-03-21T05:39:32;99115.81;;;7.90;100.00
10921;BME280;5513;50.580;8.818;2023-03-21T05:42:00;99109.19;;;7.83;100.00
10921;BME280;5513;50.580;8.818;2023-03-21T05:44:29;99107.56;;;7.80;100.00
10921;BME280;5513;50.580;8.818;2023-03-21T05:46:57;99103.13;;;7.81;100.00
10921;BME280;5513;50.580;8.818;2023-03-21T05:49:26;99118.28;;;7.77;100.00
10921;BME280;5513;50.580;8.818;2023-03-21T05:51:54;99114.22;;;7.87;100.00
10921;BME280;5513;50.580;8.818;2023-03-21T05:54:25;99118.72;;;7.85;100.00
10921;BME280;5513;50.580;8.818;2023-03-21T05:56:53;99115.47;;;7.80;100.00
10921;BME280;5513;50.580;8.818;2023-03-21T05:59:24;99117.88;;;7.85;100.00
10921;BME280;5513;50.580;8.818;2023-03-21T06:01:53;99118.09;;;7.80;100.00
10921;BME280;5513;50.580;8.818;2023-03-21T06:04:24;99118.81;;;7.84;100.00
10921;BME280;5513;50.580;8.818;2023-03-21T06:06:54;99121.63;;;7.96;100.00
10921;BME280;5513;50.580;8.818;2023-03-21T06:09:24;99116.25;;;7.98;100.00
10921;BME280;5513;50.580;8.818;2023-03-21T06:11:54;99110.53;;;7.90;100.00
10921;BME280;5513;50.580;8.818;2023-03-21T06:14:24;99115.22;;;8.00;100.00
10921;BME280;5513;50.580;8.818;2023-03-21T06:16:53;99121.13;;;8.06;100.00
10921;BME280;5513;50.580;8.818;2023-03-21T06:19:22;99132.88;;;8.16;100.00
10921;BME280;5513;50.580;8.818;2023-03-21T06:21:51;99131.84;;;8.18;100.00
10921;BME280;5513;50.580;8.818;2023-03-21T06:24:21;99133.66;;;8.02;100.00
10921;BME280;5513;50.580;8.818;2023-03-21T06:26:51;99136.03;;;8.22;100.00
10921;BME280;5513;50.580;8.818;2023-03-21T06:29:20;99131.34;;;8.27;100.00
10921;BME280;5513;50.580;8.818;2023-03-21T06:31:48;99130.69;;;8.24;100.00
10921;BME280;5513;50.580;8.818;2023-03-21T06:34:17;99135.41;;;8.35;100.00
10921;BME280;5513;50.580;8.818;2023-03-21T06:36:46;99133.44;;;8.38;100.00
10921;BME280;5513;50.580;8.818;2023-03-21T06:39:14;99138.69;;;8.38;100.00
10921;BME280;5513;50.580;8.818;2023-03-21T06:41:43;99129.53;;;8.45;100.00
10921;BME280;5513;50.580;8.818;2023-03-21T06:44:13;99134.03;;;8.59;100.00
10921;BME280;5513;50.580;8.818;2023-03-21T06:46:43;99133.63;;;8.51;100.00
10921;BME280;5513;50.580;8.818;2023-03-21T06:49:11;99132.25;;;8.59;100.00
10921;BME280;5513;50.580;8.818;2023-03-21T06:51:40;99133.50;;;8.68;100.00
10921;BME280;5513;50.580;8.818;2023-03-21T06:54:08;99133.09;;;8.60;100.00
10921;BME280;5513;50.580;8.818;2023-03-21T06:56:40;99135.13;;;8.71;100.00
10921;BME280;5513;50.580;8.818;2023-03-21T06:59:08;99139.03;;;8.79;100.00
10921;BME280;5513;50.580;8.818;2023-03-21T07:01:38;99134.38;;;8.69;100.00
10921;BME280;5513;50.580;8.818;2023-03-21T07:04:07;99134.09;;;8.73;100.00
10921;BME280;5513;50.580;8.818;2023-03-21T07:06:35;99128.72;;;8.75;100.00
10921;BME280;5513;50.580;8.818;2023-03-21T07:09:04;99124.47;;;8.88;100.00
10921;BME280;5513;50.580;8.818;2023-03-21T07:11:34;99129.56;;;8.91;100.00
10921;BME280;5513;50.580;8.818;2023-03-21T07:14:04;99124.19;;;8.93;100.00
10921;BME280;5513;50.580;8.818;2023-03-21T07:16:33;99129.06;;;8.84;100.00
10921;BME280;5513;50.580;8.818;2023-03-21T07:19:03;99131.06;;;8.95;100.00
10921;BME280;5513;50.580;8.818;2023-03-21T07:21:32;99132.91;;;8.79;100.00
10921;BME280;5513;50.580;8.818;2023-03-21T07:24:01;99124.81;;;8.82;100.00
10921;BME280;5513;50.580;8.818;2023-03-21T07:26:30;99123.56;;;9.03;100.00
10921;BME280;5513;50.580;8.818;2023-03-21T07:28:58;99128.75;;;9.05;100.00
10921;BME280;5513;50.580;8.818;2023-03-21T07:31:27;99138.97;;;9.11;100.00
10921;BME280;5513;50.580;8.818;2023-03-21T07:33:55;99125.03;;;9.23;100.00
10921;BME280;5513;50.580;8.818;2023-03-21T07:36:26;99119.53;;;9.12;100.00
10921;BME280;5513;50.580;8.818;2023-03-21T07:38:54;99119.66;;;9.25;100.00
10921;BME280;5513;50.580;8.818;2023-03-21T07:41:22;99123.22;;;9.09;100.00
10921;BME280;5513;50.580;8.818;2023-03-21T07:43:51;99126.41;;;9.14;100.00
10921;BME280;5513;50.580;8.818;2023-03-21T07:46:19;99125.72;;;9.41;100.00
10921;BME280;5513;50.580;8.818;2023-03-21T07:48:48;99120.44;;;9.55;100.00
10921;BME280;5513;50.580;8.818;2023-03-21T07:51:18;99122.34;;;9.53;100.00
10921;BME280;5513;50.580;8.818;2023-03-21T07:53:48;99113.69;;;9.65;100.00
10921;BME280;5513;50.580;8.818;2023-03-21T07:56:16;99114.44;;;9.67;100.00
10921;BME280;5513;50.580;8.818;2023-03-21T07:58:44;99121.69;;;9.64;100.00
10921;BME280;5513;50.580;8.818;2023-03-21T08:01:12;99117.81;;;9.55;100.00
10921;BME280;5513;50.580;8.818;2023-03-21T08:03:41;99118.75;;;9.54;100.00
10921;BME280;5513;50.580;8.818;2023-03-21T08:06:10;99126.63;;;9.56;100.00
10921;BME280;5513;50.580;8.818;2023-03-21T08:08:38;99117.16;;;9.52;100.00
10921;BME280;5513;50.580;8.818;2023-03-21T08:11:09;99123.28;;;9.52;100.00
10921;BME280;5513;50.580;8.818;2023-03-21T08:13:38;99128.09;;;9.45;100.00
10921;BME280;5513;50.580;8.818;2023-03-21T08:16:07;99127.44;;;9.42;100.00
10921;BME280;5513;50.580;8.818;2023-03-21T08:18:36;99127.38;;;9.58;100.00
10921;BME280;5513;50.580;8.818;2023-03-21T08:21:05;99122.75;;;9.61;100.00
10921;BME280;5513;50.580;8.818;2023-03-21T08:23:35;99123.78;;;9.59;100.00
10921;BME280;5513;50.580;8.818;2023-03-21T08:26:03;99124.72;;;9.72;100.00
10921;BME280;5513;50.580;8.818;2023-03-21T08:28:35;99117.81;;;9.84;100.00
10921;BME280;5513;50.580;8.818;2023-03-21T08:31:07;99124.66;;;9.88;100.00
10921;BME280;5513;50.580;8.818;2023-03-21T08:33:37;99113.19;;;10.01;100.00
10921;BME280;5513;50.580;8.818;2023-03-21T08:36:07;99118.59;;;10.00;100.00
10921;BME280;5513;50.580;8.818;2023-03-21T08:38:35;99118.13;;;10.08;100.00
10921;BME280;5513;50.580;8.818;2023-03-21T08:41:04;99117.81;;;10.12;100.00
10921;BME280;5513;50.580;8.818;2023-03-21T08:43:35;99125.41;;;10.04;100.00
10921;BME280;5513;50.580;8.818;2023-03-21T08:46:04;99124.09;;;9.97;100.00
10921;BME280;5513;50.580;8.818;2023-03-21T08:48:33;99125.09;;;10.09;100.00
10921;BME280;5513;50.580;8.818;2023-03-21T08:51:05;99128.78;;;10.20;100.00
10921;BME280;5513;50.580;8.818;2023-03-21T08:53:34;99128.91;;;10.04;100.00
10921;BME280;5513;50.580;8.818;2023-03-21T08:56:02;99120.66;;;10.09;100.00
10921;BME280;5513;50.580;8.818;2023-03-21T08:58:30;99128.03;;;10.18;100.00
10921;BME280;5513;50.580;8.818;2023-03-21T09:01:01;99118.38;;;10.17;100.00
10921;BME280;5513;50.580;8.818;2023-03-21T09:03:30;99122.66;;;10.34;100.00
10921;BME280;5513;50.580;8.818;2023-03-21T09:05:59;99120.16;;;10.45;100.00
10921;BME280;5513;50.580;8.818;2023-03-21T09:08:29;99120.59;;;10.25;100.00
10921;BME280;5513;50.580;8.818;2023-03-21T09:10:57;99122.72;;;10.47;100.00
10921;BME280;5513;50.580;8.818;2023-03-21T09:13:25;99119.50;;;10.42;100.00
10921;BME280;5513;50.580;8.818;2023-03-21T09:15:54;99112.13;;;10.74;100.00
10921;BME280;5513;50.580;8.818;2023-03-21T09:18:25;99113.63;;;10.78;100.00
10921;BME280;5513;50.580;8.818;2023-03-21T09:21:07;99114.53;;;10.91;100.00
10921;BME280;5513;50.580;8.818;2023-03-21T09:23:39;99115.56;;;10.88;100.00
10921;BME280;5513;50.580;8.818;2023-03-21T09:26:08;99112.19;;;10.99;100.00
10921;BME280;5513;50.580;8.818;2023-03-21T09:28:37;99115.31;;;11.06;100.00
10921;BME280;5513;50.580;8.818;2023-03-21T09:31:06;99114.44;;;11.05;100.00
10921;BME280;5513;50.580;8.818;2023-03-21T09:33:39;99115.31;;;11.06;100.00
10921;BME280;5513;50.580;8.818;2023-03-21T09:36:09;99119.34;;;11.11;100.00
10921;BME280;5513;50.580;8.818;2023-03-21T09:38:40;99114.06;;;11.11;100.00
10921;BME280;5513;50.580;8.818;2023-03-21T09:41:19;99121.78;;;11.14;100.00
10921;BME280;5513;50.580;8.818;2023-03-21T09:44:04;99120.59;;;11.06;100.00
10921;BME280;5513;50.580;8.818;2023-03-21T09:46:40;99119.13;;;11.14;100.00
10921;BME280;5513;50.580;8.818;2023-03-21T09:49:15;99115.97;;;11.22;100.00
10921;BME280;5513;50.580;8.818;2023-03-21T09:51:48;99123.28;;;11.18;100.00
10921;BME280;5513;50.580;8.818;2023-03-21T09:54:21;99118.41;;;11.12;100.00
10921;BME280;5513;50.580;8.818;2023-03-21T09:56:55;99123.44;;;11.30;100.00
10921;BME280;5513;50.580;8.818;2023-03-21T09:59:31;99121.69;;;11.29;100.00
10921;BME280;5513;50.580;8.818;2023-03-21T10:02:03;99122.47;;;11.31;100.00
10921;BME280;5513;50.580;8.818;2023-03-21T10:04:39;99108.44;;;11.29;100.00
10921;BME280;5513;50.580;8.818;2023-03-21T10:07:12;99119.19;;;11.40;100.00
10921;BME280;5513;50.580;8.818;2023-03-21T10:09:44;99116.84;;;11.48;100.00
10921;BME280;5513;50.580;8.818;2023-03-21T10:12:18;99116.00;;;11.35;100.00
10921;BME280;5513;50.580;8.818;2023-03-21T10:14:49;99118.13;;;11.55;100.00
10921;BME280;5513;50.580;8.818;2023-03-21T10:17:26;99111.88;;;11.56;100.00
10921;BME280;5513;50.580;8.818;2023-03-21T10:20:10;99106.69;;;11.55;100.00
10921;BME280;5513;50.580;8.818;2023-03-21T10:22:41;99110.28;;;11.66;100.00
10921;BME280;5513;50.580;8.818;2023-03-21T10:25:16;99109.66;;;11.50;100.00
10921;BME280;5513;50.580;8.818;2023-03-21T10:27:47;99110.19;;;11.55;100.00
10921;BME280;5513;50.580;8.818;2023-03-21T10:30:27;99106.25;;;11.73;100.00
10921;BME280;5513;50.580;8.818;2023-03-21T10:33:00;99104.94;;;11.28;100.00
10921;BME280;5513;50.580;8.818;2023-03-21T10:35:33;99107.13;;;11.49;100.00
10921;BME280;5513;50.580;8.818;2023-03-21T10:38:04;99109.22;;;11.56;100.00
10921;BME280;5513;50.580;8.818;2023-03-21T10:40:34;99104.41;;;11.23;100.00
10921;BME280;5513;50.580;8.818;2023-03-21T10:43:31;99116.81;;;11.10;100.00
10921;BME280;5513;50.580;8.818;2023-03-21T10:46:10;99103.91;;;11.31;100.00
10921;BME280;5513;50.580;8.818;2023-03-21T10:48:40;99106.56;;;11.56;100.00
10921;BME280;5513;50.580;8.818;2023-03-21T10:51:18;99103.69;;;11.34;100.00
10921;BME280;5513;50.580;8.818;2023-03-21T10:53:50;99102.66;;;11.49;100.00
10921;BME280;5513;50.580;8.818;2023-03-21T10:56:22;99102.44;;;11.52;100.00
10921;BME280;5513;50.580;8.818;2023-03-21T10:58:54;99101.25;;;11.56;100.00
10921;BME280;5513;50.580;8.818;2023-03-21T11:01:28;99107.75;;;11.39;100.00
10921;BME280;5513;50.580;8.818;2023-03-21T11:04:06;99110.41;;;11.39;100.00
10921;BME280;5513;50.580;8.818;2023-03-21T11:06:38;99113.94;;;11.13;100.00
10921;BME280;5513;50.580;8.818;2023-03-21T11:09:14;99119.47;;;11.10;100.00
10921;BME280;5513;50.580;8.818;2023-03-21T11:11:49;99126.38;;;10.85;100.00
10921;BME280;5513;50.580;8.818;2023-03-21T11:14:31;99120.59;;;11.06;100.00
10921;BME280;5513;50.580;8.818;2023-03-21T11:17:00;99122.91;;;10.98;100.00
10921;BME280;5513;50.580;8.818;2023-03-21T11:19:30;99116.00;;;10.95;100.00
10921;BME280;5513;50.580;8.818;2023-03-21T11:22:05;99122.16;;;10.96;100.00
10921;BME280;5513;50.580;8.818;2023-03-21T11:24:34;99124.75;;;11.10;100.00
10921;BME280;5513;50.580;8.818;2023-03-21T11:27:05;99114.34;;;11.07;100.00
10921;BME280;5513;50.580;8.818;2023-03-21T11:29:36;99113.13;;;11.25;100.00
10921;BME280;5513;50.580;8.818;2023-03-21T11:32:10;99116.72;;;11.24;100.00
10921;BME280;5513;50.580;8.818;2023-03-21T11:34:44;99120.72;;;11.17;100.00
10921;BME280;5513;50.580;8.818;2023-03-21T11:37:24;99123.19;;;11.20;100.00
10921;BME280;5513;50.580;8.818;2023-03-21T11:39:55;99120.56;;;11.20;100.00
10921;BME280;5513;50.580;8.818;2023-03-21T11:42:29;99117.28;;;11.29;100.00
10921;BME280;5513;50.580;8.818;2023-03-21T11:45:01;99111.53;;;11.48;100.00
10921;BME280;5513;50.580;8.818;2023-03-21T11:47:31;99103.28;;;11.40;100.00
10921;BME280;5513;50.580;8.818;2023-03-21T11:49:59;99102.97;;;11.32;100.00
10921;BME280;5513;50.580;8.818;2023-03-21T11:52:37;99099.56;;;11.30;100.00
10921;BME280;5513;50.580;8.818;2023-03-21T11:55:31;99098.50;;;11.20;100.00
10921;BME280;5513;50.580;8.818;2023-03-21T11:58:21;99090.84;;;11.28;100.00
10921;BME280;5513;50.580;8.818;2023-03-21T12:01:01;99095.41;;;11.26;100.00
10921;BME280;5513;50.580;8.818;2023-03-21T12:03:54;99091.69;;;11.28;100.00
10921;BME280;5513;50.580;8.818;2023-03-21T12:06:28;99090.22;;;11.24;100.00
10921;BME280;5513;50.580;8.818;2023-03-21T12:09:24;99086.53;;;11.52;100.00
10921;BME280;5513;50.580;8.818;2023-03-21T12:12:02;99087.44;;;11.13;100.00
10921;BME280;5513;50.580;8.818;2023-03-21T12:14:40;99075.91;;;11.52;100.00
10921;BME280;5513;50.580;8.818;2023-03-21T12:17:23;99076.97;;;11.37;100.00
10921;BME280;5513;50.580;8.818;2023-03-21T12:20:24;99075.03;;;11.26;100.00
10921;BME280;5513;50.580;8.818;2023-03-21T12:23:05;99069.84;;;11.25;100.00
10921;BME280;5513;50.580;8.818;2023-03-21T12:25:44;99063.06;;;11.46;100.00
10921;BME280;5513;50.580;8.818;2023-03-21T12:28:25;99062.00;;;11.61;100.00
10921;BME280;5513;50.580;8.818;2023-03-21T12:31:07;99058.50;;;11.73;100.00
10921;BME280;5513;50.580;8.818;2023-03-21T12:33:48;99056.91;;;11.71;100.00
10921;BME280;5513;50.580;8.818;2023-03-21T12:36:35;99049.59;;;11.62;100.00
10921;BME280;5513;50.580;8.818;2023-03-21T12:39:15;99052.03;;;11.52;100.00
10921;BME280;5513;50.580;8.818;2023-03-21T12:41:56;99047.88;;;11.48;100.00
10921;BME280;5513;50.580;8.818;2023-03-21T12:44:32;99047.78;;;11.37;100.00
10921;BME280;5513;50.580;8.818;2023-03-21T12:47:06;99051.91;;;11.28;100.00
10921;BME280;5513;50.580;8.818;2023-03-21T12:49:40;99052.97;;;11.13;100.00
10921;BME280;5513;50.580;8.818;2023-03-21T12:52:12;99048.75;;;11.10;100.00
10921;BME280;5513;50.580;8.818;2023-03-21T12:54:44;99055.19;;;11.19;100.00
10921;BME280;5513;50.580;8.818;2023-03-21T12:57:19;99055.63;;;11.13;100.00
10921;BME280;5513;50.580;8.818;2023-03-21T12:59:54;99058.09;;;10.76;100.00
10921;BME280;5513;50.580;8.818;2023-03-21T13:02:30;99075.88;;;10.62;100.00
10921;BME280;5513;50.580;8.818;2023-03-21T13:05:04;99064.81;;;10.55;100.00
10921;BME280;5513;50.580;8.818;2023-03-21T13:07:37;99065.28;;;10.62;100.00
10921;BME280;5513;50.580;8.818;2023-03-21T13:10:14;99063.41;;;10.49;100.00
10921;BME280;5513;50.580;8.818;2023-03-21T13:12:50;99065.31;;;10.47;100.00
10921;BME280;5513;50.580;8.818;2023-03-21T13:15:34;99061.06;;;10.45;100.00
10921;BME280;5513;50.580;8.818;2023-03-21T13:18:15;99069.59;;;10.36;100.00
10921;BME280;5513;50.580;8.818;2023-03-21T13:20:48;99066.47;;;10.43;100.00
10921;BME280;5513;50.580;8.818;2023-03-21T13:23:18;99063.91;;;10.42;100.00
10921;BME280;5513;50.580;8.818;2023-03-21T13:25:50;99063.56;;;10.34;100.00
10921;BME280;5513;50.580;8.818;2023-03-21T13:28:26;99062.16;;;10.55;100.00
10921;BME280;5513;50.580;8.818;2023-03-21T13:31:18;99059.06;;;10.48;100.00
10921;BME280;5513;50.580;8.818;2023-03-21T13:33:49;99059.66;;;10.39;100.00
10921;BME280;5513;50.580;8.818;2023-03-21T13:36:23;99043.13;;;10.36;100.00
10921;BME280;5513;50.580;8.818;2023-03-21T13:38:54;99054.56;;;10.36;100.00
10921;BME280;5513;50.580;8.818;2023-03-21T13:41:30;99041.97;;;10.40;100.00
10921;BME280;5513;50.580;8.818;2023-03-21T13:44:18;99033.19;;;10.39;100.00
10921;BME280;5513;50.580;8.818;2023-03-21T13:46:53;99040.94;;;10.42;100.00